Portada
METAR-TAF:

METAR-TAF

Aeroports :

Còrdova, Espanya

latitud: 37-51N, longitud: 004-51W, altitud: 90 m

Observació

L'informe es va fer fa 14 hores i 51 minuts, a les 05:00 UTC
Vent 2 kt del Sud-Oest
Temperatura 20°C
Humitat 68%
Pressió 1016 hPa
Visibilitat 10 km o més

METAR: LEBA 210500Z AUTO 23002KT 9999 NCD 20/14 Q1016

Hora: 21:51 (19:51 UTC)

Pronòstic

L'informe es va fer fa 14 hores i 51 minuts, a les 05:00 UTC
Pronòstic vàlid del 21 a les 06 UTC al 21 a les 15 UTC
Vent 4 kt del Est
Visibilitat 10 km o més
sense núvols per sota de 1500 mi sense presència de cumulonimbus.

TAF: LEBA 210500Z 2106/2115 10004KT CAVOK

Observacions i pronòstics meteorològics de més de 4000 aeroports (METAR i TAF).

Les estacions disponibles són els punts grocs i vermells al mapa.

Posi el ratolí al punt desitjat per veure el nom de l'estació.

Feu clic per veure les observacions i els pronòstics meteorològics.

Per canviar el mapa: feu clic els botons verds amb una creu de color negre per apropar; al botó verd amb un guió per allunyar la imatge; o en les fletxes verdes per a mapes adjacents.


METAR-TAF: